Time;durP1;ratioP1;P1;durP2;ratioP2;P2;SDS_P1;SDS_P2;PMS_P1;PMS_P2;Temp;Humidity;BMP_temperature;BMP_pressure;BME280_temperature;BME280_humidity;BME280_pressure;Samples;Min_cycle;Max_cycle;Signal;HPM_P1;HPM_P2
2022/07/01 07:46:08;;;;;;;9.32;6.75;;;14.50;99.90;;;;;;5090754;28;20968;-83
2022/07/01 07:48:33;;;;;;;6.88;6.38;;;14.40;99.90;;;;;;5090747;28;20198;-83
2022/07/01 07:50:59;;;;;;;7.13;6.53;;;14.40;99.90;;;;;;5090758;28;20164;-81
2022/07/01 07:53:25;;;;;;;8.25;7.03;;;14.50;99.90;;;;;;5090805;28;20591;-81
2022/07/01 07:55:50;;;;;;;14.15;7.18;;;14.40;99.90;;;;;;5089432;28;20540;-84
2022/07/01 07:58:17;;;;;;;7.13;6.30;;;14.50;99.90;;;;;;5090705;28;20267;-83
2022/07/01 08:00:43;;;;;;;8.65;5.93;;;14.70;99.90;;;;;;5089380;28;20167;-83
2022/07/01 08:03:09;;;;;;;7.53;6.88;;;14.70;99.90;;;;;;5089316;28;20167;-79
2022/07/01 08:05:34;;;;;;;6.63;5.80;;;14.90;99.90;;;;;;5090589;28;20206;-83
2022/07/01 08:08:00;;;;;;;7.85;6.75;;;14.80;99.90;;;;;;5090573;28;20163;-82
2022/07/01 08:10:26;;;;;;;11.25;8.10;;;14.80;99.90;;;;;;5090474;28;20160;-81
2022/07/01 08:12:51;;;;;;;6.65;6.00;;;14.80;99.90;;;;;;5090483;28;20748;-82
2022/07/01 08:15:17;;;;;;;5.70;5.18;;;14.90;99.90;;;;;;5090423;28;20164;-79
2022/07/01 08:17:43;;;;;;;7.10;6.13;;;14.90;99.90;;;;;;5090315;28;20652;-80
2022/07/01 08:20:09;;;;;;;6.25;5.75;;;15.00;99.90;;;;;;5088967;28;20262;-81
2022/07/01 08:22:34;;;;;;;6.15;5.55;;;14.90;99.90;;;;;;5090297;28;20662;-80
2022/07/01 08:25:00;;;;;;;9.95;5.93;;;14.90;99.90;;;;;;5090105;28;20211;-82
2022/07/01 08:27:25;;;;;;;6.97;6.30;;;14.80;99.90;;;;;;5088944;28;20183;-81
2022/07/01 08:29:51;;;;;;;6.93;6.28;;;14.70;99.90;;;;;;5090129;28;20164;-83
2022/07/01 08:32:16;;;;;;;7.88;6.10;;;14.70;99.90;;;;;;5090038;28;20277;-83
2022/07/01 08:34:42;;;;;;;6.50;6.03;;;14.80;99.90;;;;;;5089995;28;20202;-81
2022/07/01 08:37:08;;;;;;;7.80;5.82;;;14.90;99.90;;;;;;5090017;28;20167;-83
2022/07/01 08:39:33;;;;;;;6.57;5.80;;;15.10;99.90;;;;;;5089930;28;20194;-83
2022/07/01 08:41:59;;;;;;;9.93;6.10;;;15.40;99.90;;;;;;5088571;28;20168;-81
2022/07/01 08:44:25;;;;;;;9.15;4.97;;;15.60;99.90;;;;;;5089560;28;20231;-83
2022/07/01 08:46:51;;;;;;;8.63;4.82;;;15.80;99.90;;;;;;5089726;28;20172;-83
2022/07/01 08:49:17;;;;;;;4.75;4.35;;;15.90;99.90;;;;;;5089747;28;20210;-84
2022/07/01 08:51:43;;;;;;;6.35;4.68;;;16.00;99.90;;;;;;5088426;28;20172;-83
2022/07/01 08:54:08;;;;;;;3.90;3.67;;;16.20;99.90;;;;;;5088236;28;20614;-81
2022/07/01 08:56:46;;;;;;;3.92;3.63;;;16.40;99.90;;;;;;5079876;28;20196;-83
2022/07/01 08:59:20;;;;;;;3.95;3.72;;;16.70;99.90;;;;;;5075965;28;20574;-83
2022/07/01 09:01:46;;;;;;;3.95;3.50;;;16.70;99.90;;;;;;5076011;28;20175;-83
2022/07/01 09:04:17;;;;;;;4.38;3.75;;;17.00;99.90;;;;;;5075881;28;20554;-82
2022/07/01 09:06:44;;;;;;;3.33;3.00;;;17.20;99.90;;;;;;5074499;28;20165;-83
2022/07/01 09:09:19;;;;;;;4.05;3.25;;;17.20;99.90;;;;;;5075951;28;20251;-82
2022/07/01 09:11:53;;;;;;;7.70;3.40;;;17.00;99.90;;;;;;5075845;28;20237;-81
2022/07/01 09:14:23;;;;;;;3.38;3.08;;;16.90;99.90;;;;;;5075819;28;20198;-83
2022/07/01 09:16:58;;;;;;;4.13;3.22;;;16.70;99.90;;;;;;5075766;28;20165;-83
2022/07/01 09:19:24;;;;;;;3.22;2.92;;;16.70;99.90;;;;;;5075758;28;20706;-83
2022/07/01 09:21:52;;;;;;;4.30;2.75;;;16.90;99.90;;;;;;5075590;28;20676;-83
2022/07/01 09:24:35;;;;;;;4.43;3.10;;;17.10;99.90;;;;;;5075584;28;20192;-83
2022/07/01 09:27:13;;;;;;;3.22;3.03;;;17.30;99.90;;;;;;5075564;28;20168;-83
2022/07/01 09:29:41;;;;;;;6.70;3.08;;;17.20;99.90;;;;;;5075568;28;20168;-83
2022/07/01 09:32:09;;;;;;;2.83;2.70;;;17.30;99.90;;;;;;5075455;28;20261;-83
2022/07/01 09:34:40;;;;;;;3.83;3.63;;;17.20;99.90;;;;;;5075332;28;20168;-83
2022/07/01 09:37:05;;;;;;;4.15;3.10;;;17.60;99.90;;;;;;5075405;28;20302;-82
2022/07/01 09:39:45;;;;;;;3.53;3.22;;;17.70;99.90;;;;;;5075206;28;20196;-82
2022/07/01 09:42:10;;;;;;;2.75;2.35;;;17.70;99.90;;;;;;5075310;28;20260;-83
2022/07/01 09:44:55;;;;;;;3.45;2.38;;;17.60;99.90;;;;;;5074973;28;20636;-83
2022/07/01 09:47:27;;;;;;;3.30;3.00;;;17.60;99.90;;;;;;5075099;28;20633;-81
2022/07/01 09:49:54;;;;;;;3.75;3.38;;;17.50;99.90;;;;;;5073824;28;20176;-81
2022/07/01 09:52:21;;;;;;;3.45;3.15;;;17.40;99.90;;;;;;5075001;28;20270;-82
2022/07/01 09:54:48;;;;;;;4.32;4.03;;;17.40;99.90;;;;;;5073657;28;20172;-82
2022/07/01 09:57:14;;;;;;;9.70;3.58;;;17.40;99.90;;;;;;5073593;28;20196;-83
2022/07/01 09:59:40;;;;;;;3.55;3.25;;;17.70;99.90;;;;;;5074913;28;20173;-83
2022/07/01 10:02:08;;;;;;;3.33;3.13;;;17.70;99.90;;;;;;5074552;28;20186;-82
2022/07/01 10:04:36;;;;;;;3.45;3.25;;;17.80;99.90;;;;;;5074481;28;20204;-83
2022/07/01 10:07:50;;;;;;;5.10;4.00;;;17.80;99.90;;;;;;5073105;28;20172;-80
2022/07/01 10:10:46;;;;;;;4.13;2.70;;;18.00;99.90;;;;;;5057727;28;20180;-82
2022/07/01 10:13:17;;;;;;;5.07;3.10;;;17.70;99.90;;;;;;5073287;28;20623;-82
2022/07/01 10:15:45;;;;;;;2.63;2.25;;;17.80;99.90;;;;;;5074579;28;20648;-83
2022/07/01 10:18:25;;;;;;;2.65;2.50;;;18.00;99.90;;;;;;5074599;28;20265;-82
2022/07/01 10:20:52;;;;;;;4.00;3.20;;;18.20;99.90;;;;;;5073143;28;20526;-82
2022/07/01 10:23:37;;;;;;;3.78;2.80;;;18.10;99.90;;;;;;5074386;28;20165;-82
2022/07/01 10:26:05;;;;;;;5.60;3.25;;;17.90;99.90;;;;;;5074294;28;20586;-82
2022/07/01 10:28:48;;;;;;;4.07;2.50;;;18.00;99.90;;;;;;5074305;28;20718;-80
2022/07/01 10:31:18;;;;;;;2.63;2.42;;;17.90;99.90;;;;;;5074299;28;20637;-80
2022/07/01 10:33:52;;;;;;;3.90;2.58;;;17.90;99.90;;;;;;5072921;28;20195;-82
2022/07/01 10:36:33;;;;;;;2.83;2.55;;;17.70;99.90;;;;;;5074150;28;20171;-82
2022/07/01 10:39:07;;;;;;;2.80;2.58;;;17.90;99.90;;;;;;5073931;28;20191;-82
2022/07/01 10:41:39;;;;;;;2.35;2.15;;;18.40;99.90;;;;;;5074046;28;20163;-82
2022/07/01 10:44:10;;;;;;;7.72;2.17;;;18.50;99.90;;;;;;5073719;28;20261;-81
2022/07/01 10:46:49;;;;;;;2.58;2.22;;;18.50;99.90;;;;;;5072739;28;20172;-82
2022/07/01 10:49:20;;;;;;;4.45;2.63;;;18.50;99.90;;;;;;5072710;28;20278;-82
2022/07/01 10:51:58;;;;;;;3.10;1.90;;;18.50;99.90;;;;;;5073790;28;20297;-81
2022/07/01 10:54:45;;;;;;;3.03;1.90;;;18.50;99.90;;;;;;5073819;28;20278;-79
2022/07/01 10:57:19;;;;;;;2.83;1.90;;;18.50;99.90;;;;;;5072508;28;20649;-80
2022/07/01 10:59:50;;;;;;;4.57;2.35;;;18.40;99.90;;;;;;5072465;28;20172;-82
2022/07/01 11:02:29;;;;;;;2.40;2.05;;;18.30;99.90;;;;;;5073843;28;20168;-81
2022/07/01 11:04:57;;;;;;;5.57;2.45;;;18.00;99.90;;;;;;5069224;28;20199;-82
2022/07/01 11:07:35;;;;;;;5.72;2.33;;;17.90;99.90;;;;;;5073557;28;20250;-80
2022/07/01 11:10:04;;;;;;;1.60;1.50;;;17.80;99.90;;;;;;5072322;28;20267;-80
2022/07/01 11:12:31;;;;;;;2.40;1.70;;;17.90;99.90;;;;;;5073519;28;20183;-82
2022/07/01 11:15:01;;;;;;;2.30;1.80;;;18.00;99.90;;;;;;5073534;28;20179;-82
2022/07/01 11:17:27;;;;;;;2.38;2.17;;;18.20;99.90;;;;;;5072182;28;20205;-81
2022/07/01 11:19:59;;;;;;;2.20;1.60;;;18.60;99.90;;;;;;5073173;28;20163;-81
2022/07/01 11:22:27;;;;;;;3.95;2.25;;;18.70;99.90;;;;;;5072079;28;20175;-82
2022/07/01 11:24:58;;;;;;;1.65;1.55;;;18.90;99.90;;;;;;5073269;28;20225;-81
2022/07/01 11:27:24;;;;;;;2.33;1.42;;;19.00;99.90;;;;;;5073365;28;20168;-80
2022/07/01 11:30:04;;;;;;;1.40;1.40;;;19.20;99.90;;;;;;5073283;28;20595;-82
2022/07/01 11:32:32;;;;;;;1.40;1.30;;;19.40;99.90;;;;;;5073355;28;20163;-81
2022/07/01 11:35:00;;;;;;;1.35;1.30;;;19.40;99.90;;;;;;5073244;28;20637;-80
2022/07/01 11:40:14;;;;;;;1.50;1.40;;;19.00;99.90;;;;;;5073267;28;20644;-81
2022/07/01 11:42:41;;;;;;;6.07;1.60;;;19.00;99.90;;;;;;5071842;28;20179;-82
2022/07/01 11:45:08;;;;;;;2.47;1.48;;;19.20;99.90;;;;;;5072997;28;20294;-82
2022/07/01 11:47:33;;;;;;;5.28;1.45;;;19.30;99.90;;;;;;5073251;28;20255;-81
2022/07/01 11:50:00;;;;;;;4.82;1.48;;;19.10;99.90;;;;;;5073159;28;20252;-82
2022/07/01 11:52:27;;;;;;;2.80;1.52;;;19.10;99.90;;;;;;5073159;28;20226;-81
2022/07/01 11:54:55;;;;;;;4.43;1.40;;;19.00;99.90;;;;;;5071909;28;20176;-82
2022/07/01 11:57:23;;;;;;;2.53;1.48;;;19.10;99.90;;;;;;5073001;28;20270;-83
2022/07/01 11:59:51;;;;;;;1.60;1.50;;;19.20;99.90;;;;;;5073141;28;20202;-82
2022/07/01 12:02:19;;;;;;;2.20;1.35;;;19.20;99.90;;;;;;5072917;28;20179;-81
2022/07/01 12:04:45;;;;;;;1.95;1.40;;;19.40;99.90;;;;;;5072934;28;20284;-80
2022/07/01 12:07:13;;;;;;;3.65;1.42;;;19.70;99.90;;;;;;5073029;28;20617;-80
2022/07/01 12:09:39;;;;;;;1.75;1.50;;;19.90;99.90;;;;;;5073036;28;20636;-82
2022/07/01 12:12:05;;;;;;;1.75;1.65;;;19.90;99.90;;;;;;5071666;28;20168;-81
2022/07/01 12:14:35;;;;;;;2.20;1.77;;;19.70;99.90;;;;;;5072934;28;20180;-82
2022/07/01 12:17:15;;;;;;;4.50;1.77;;;19.50;99.90;;;;;;5071611;28;20183;-82
2022/07/01 12:19:43;;;;;;;1.70;1.60;;;19.90;99.90;;;;;;5072980;28;20543;-81
2022/07/01 12:22:15;;;;;;;5.65;1.70;;;20.40;99.90;;;;;;5071741;28;20179;-82
2022/07/01 12:24:41;;;;;;;1.58;1.50;;;20.70;99.90;;;;;;5072771;28;20199;-82
2022/07/01 12:27:08;;;;;;;3.50;1.33;;;20.60;99.90;;;;;;5072874;28;20641;-81
2022/07/01 12:29:43;;;;;;;3.03;1.50;;;20.50;99.90;;;;;;5072730;28;20246;-81
2022/07/01 12:32:11;;;;;;;3.30;1.13;;;20.20;99.90;;;;;;5075222;28;20171;-81
2022/07/01 12:34:53;;;;;;;1.08;1.08;;;19.80;99.90;;;;;;5076551;28;20172;-81
2022/07/01 12:37:31;;;;;;;1.50;1.30;;;19.70;99.90;;;;;;5076596;28;20159;-82
2022/07/01 12:40:05;;;;;;;1.20;1.10;;;19.70;99.90;;;;;;5076385;28;20258;-82
2022/07/01 12:42:38;;;;;;;3.55;1.05;;;19.80;99.90;;;;;;5076415;28;20167;-80
2022/07/01 12:45:09;;;;;;;3.13;1.42;;;19.90;99.90;;;;;;5076117;28;20242;-82
2022/07/01 12:47:48;;;;;;;3.30;1.60;;;19.80;99.90;;;;;;5076341;28;20164;-83
2022/07/01 12:50:19;;;;;;;1.40;1.20;;;20.00;99.90;;;;;;5074998;28;20184;-83
2022/07/01 12:53:06;;;;;;;2.30;1.30;;;20.40;99.90;;;;;;5076237;28;20203;-80
2022/07/01 12:55:39;;;;;;;1.27;1.17;;;20.40;99.90;;;;;;5074896;28;20198;-80
2022/07/01 12:58:10;;;;;;;1.65;1.33;;;20.40;99.90;;;;;;5076038;28;20194;-82
2022/07/01 13:00:38;;;;;;;1.40;1.33;;;20.40;99.90;;;;;;5076077;28;20164;-79
2022/07/01 13:03:04;;;;;;;5.35;0.98;;;20.40;99.90;;;;;;5074653;28;20179;-83
2022/07/01 13:05:31;;;;;;;1.70;1.13;;;20.20;99.90;;;;;;5075912;28;20608;-82
2022/07/01 13:07:57;;;;;;;1.23;1.10;;;20.00;99.90;;;;;;5075931;28;20569;-83
2022/07/01 13:10:22;;;;;;;1.38;1.10;;;20.10;99.90;;;;;;5075744;28;20168;-82
2022/07/01 13:12:48;;;;;;;2.17;1.27;;;20.20;99.90;;;;;;5075813;28;20171;-81
2022/07/01 13:15:15;;;;;;;3.72;1.30;;;20.70;99.90;;;;;;5074569;28;20556;-82
2022/07/01 13:17:41;;;;;;;1.30;1.20;;;21.00;99.90;;;;;;5075619;28;20187;-82
2022/07/01 13:20:08;;;;;;;0.90;0.90;;;21.40;99.90;;;;;;5074434;28;20195;-81
2022/07/01 13:22:34;;;;;;;1.40;1.30;;;21.50;99.90;;;;;;5074459;28;20168;-82
2022/07/01 13:24:59;;;;;;;3.55;1.55;;;21.20;99.90;;;;;;5074258;28;20195;-80
2022/07/01 13:27:25;;;;;;;2.55;1.92;;;21.60;99.90;;;;;;5075534;28;20166;-82
2022/07/01 13:29:51;;;;;;;2.20;1.10;;;22.10;99.90;;;;;;5074135;28;20175;-82
2022/07/01 13:32:17;;;;;;;0.77;0.77;;;22.00;99.90;;;;;;5075544;28;20194;-82
2022/07/01 13:34:43;;;;;;;3.40;0.93;;;21.60;99.90;;;;;;5075406;28;20168;-82
2022/07/01 13:37:09;;;;;;;2.28;1.00;;;21.40;99.90;;;;;;5074374;28;20558;-82
2022/07/01 13:39:35;;;;;;;1.88;1.50;;;21.30;99.90;;;;;;5075552;28;20179;-81
2022/07/01 13:42:00;;;;;;;1.42;1.33;;;21.60;99.90;;;;;;5075195;28;20275;-81
2022/07/01 13:44:26;;;;;;;1.55;1.10;;;22.00;99.90;;;;;;5074801;28;20779;-80
2022/07/01 13:46:52;;;;;;;0.95;0.95;;;22.40;99.90;;;;;;5075066;28;20168;-83
2022/07/01 13:49:18;;;;;;;1.48;1.17;;;22.60;99.90;;;;;;5075198;28;20532;-83
2022/07/01 13:51:43;;;;;;;0.68;0.63;;;22.50;99.90;;;;;;5075095;28;20254;-84
2022/07/01 13:54:09;;;;;;;0.90;0.90;;;22.30;99.90;;;;;;5075053;28;20164;-83
2022/07/01 13:56:35;;;;;;;1.67;0.90;;;21.70;99.90;;;;;;5073655;28;20199;-83
2022/07/01 13:59:01;;;;;;;4.63;0.95;;;21.60;99.90;;;;;;5074919;28;20171;-80
2022/07/01 14:01:28;;;;;;;1.02;0.80;;;21.90;99.90;;;;;;5074938;28;20175;-85
2022/07/01 14:03:53;;;;;;;1.52;0.80;;;22.10;99.90;;;;;;5074983;28;20652;-85
2022/07/01 14:06:19;;;;;;;1.20;0.80;;;22.30;99.90;;;;;;5074784;28;20262;-83
2022/07/01 14:08:45;;;;;;;1.38;0.80;;;22.60;99.90;;;;;;5074690;28;20651;-83
2022/07/01 14:11:12;;;;;;;1.80;1.10;;;22.50;99.90;;;;;;5074536;28;20172;-82
2022/07/01 14:13:40;;;;;;;1.65;1.27;;;22.50;99.90;;;;;;5073156;28;20696;-82
2022/07/01 14:16:06;;;;;;;3.45;0.90;;;22.50;99.90;;;;;;5074608;28;20171;-84
2022/07/01 14:18:35;;;;;;;2.67;0.80;;;22.40;99.90;;;;;;5074515;28;20176;-83
2022/07/01 14:21:02;;;;;;;6.05;1.40;;;22.40;99.90;;;;;;5074518;28;20172;-83
2022/07/01 14:23:28;;;;;;;0.95;0.90;;;22.40;99.90;;;;;;5074453;28;20175;-82
2022/07/01 14:25:54;;;;;;;2.25;0.82;;;22.50;99.90;;;;;;5074291;28;20290;-82
2022/07/01 14:28:20;;;;;;;2.55;1.48;;;22.70;99.90;;;;;;5074303;28;20167;-83
2022/07/01 14:30:46;;;;;;;3.92;1.30;;;22.30;99.90;;;;;;5074256;28;20167;-84
2022/07/01 14:33:12;;;;;;;1.38;0.90;;;21.70;99.90;;;;;;5074227;28;20168;-83
2022/07/01 14:35:38;;;;;;;0.70;0.70;;;21.70;99.90;;;;;;5072937;28;20648;-83
2022/07/01 14:38:04;;;;;;;0.93;0.93;;;21.90;99.90;;;;;;5074134;28;20171;-83
2022/07/01 14:40:33;;;;;;;0.70;0.70;;;21.60;99.90;;;;;;5072873;28;20171;-84
2022/07/01 14:42:59;;;;;;;3.80;1.13;;;21.30;99.90;;;;;;5073969;28;20168;-83
2022/07/01 14:45:25;;;;;;;2.53;1.65;;;21.00;99.90;;;;;;5073918;28;20550;-83
2022/07/01 14:47:50;;;;;;;2.05;0.82;;;20.80;99.90;;;;;;5073991;28;20629;-84
2022/07/01 14:50:16;;;;;;;1.40;1.27;;;21.30;99.90;;;;;;5073876;28;20166;-81
2022/07/01 14:52:42;;;;;;;2.75;1.02;;;21.90;99.90;;;;;;5074192;28;20164;-83
2022/07/01 14:55:08;;;;;;;0.75;0.75;;;22.40;99.90;;;;;;5073355;28;20171;-82
2022/07/01 14:57:34;;;;;;;1.00;1.00;;;22.60;99.90;;;;;;5073752;28;20192;-85
2022/07/01 15:00:00;;;;;;;2.35;1.00;;;22.90;99.90;;;;;;5072418;28;20629;-84
2022/07/01 15:02:28;;;;;;;3.60;1.35;;;23.20;99.90;;;;;;5072499;28;20175;-84
2022/07/01 15:04:53;;;;;;;0.90;0.90;;;23.50;99.90;;;;;;5073526;28;20184;-81
2022/07/01 15:07:19;;;;;;;3.45;1.45;;;23.30;99.90;;;;;;5073533;28;20225;-83
2022/07/01 15:09:44;;;;;;;1.15;0.90;;;23.00;99.90;;;;;;5073656;28;20168;-83
2022/07/01 15:12:10;;;;;;;3.90;1.00;;;22.60;99.90;;;;;;5073550;28;20167;-82
2022/07/01 15:14:36;;;;;;;1.10;1.10;;;22.50;99.90;;;;;;5072232;28;20544;-84
2022/07/01 15:17:02;;;;;;;1.27;1.05;;;22.90;99.90;;;;;;5072027;28;20180;-84
2022/07/01 15:19:27;;;;;;;1.40;1.30;;;23.40;99.90;;;;;;5073563;28;20172;-83
2022/07/01 15:21:57;;;;;;;4.68;1.08;;;23.60;99.90;;;;;;5073511;28;20651;-81
2022/07/01 15:24:23;;;;;;;0.85;0.85;;;23.20;99.90;;;;;;5073387;28;20652;-83
2022/07/01 15:26:50;;;;;;;1.25;0.80;;;22.60;99.90;;;;;;5073403;28;20613;-83
2022/07/01 15:29:15;;;;;;;1.42;0.90;;;22.60;99.90;;;;;;5073239;28;20690;-84
2022/07/01 15:31:41;;;;;;;0.60;0.60;;;23.20;99.90;;;;;;5073288;28;20171;-82
2022/07/01 15:34:08;;;;;;;2.83;1.05;;;23.70;99.90;;;;;;5073384;28;20221;-83
2022/07/01 15:36:33;;;;;;;4.68;0.90;;;23.90;99.90;;;;;;5073216;28;20253;-82
2022/07/01 15:39:00;;;;;;;1.60;1.13;;;23.30;99.90;;;;;;5073355;28;20621;-81
2022/07/01 15:41:29;;;;;;;0.90;0.90;;;22.50;99.90;;;;;;5071976;28;20172;-82
2022/07/01 15:43:54;;;;;;;1.52;1.42;;;22.00;99.90;;;;;;5073045;28;20633;-82
2022/07/01 15:46:20;;;;;;;3.13;1.10;;;21.60;99.90;;;;;;5073110;28;20206;-82
2022/07/01 15:48:46;;;;;;;3.25;0.93;;;21.20;99.90;;;;;;5073205;28;20172;-80
2022/07/01 15:51:12;;;;;;;1.02;1.02;;;21.00;99.90;;;;;;5073103;28;20174;-82
2022/07/01 15:53:38;;;;;;;1.55;1.45;;;21.00;99.90;;;;;;5073129;28;20182;-82
2022/07/01 15:56:04;;;;;;;1.13;1.02;;;21.70;99.90;;;;;;5072948;28;20183;-83
2022/07/01 15:58:31;;;;;;;0.80;0.80;;;22.60;99.90;;;;;;5073170;28;20172;-83
2022/07/01 16:00:58;;;;;;;3.63;0.88;;;22.90;99.90;;;;;;5073086;28;20698;-83
2022/07/01 16:03:24;;;;;;;2.42;1.00;;;22.80;99.90;;;;;;5073119;28;20172;-82
2022/07/01 16:05:53;;;;;;;15.82;1.00;;;22.60;99.90;;;;;;5073361;28;20199;-81
2022/07/01 16:08:24;;;;;;;1.15;0.90;;;22.60;99.90;;;;;;5075768;28;20203;-82
2022/07/01 16:10:54;;;;;;;1.02;1.02;;;22.40;99.90;;;;;;5077119;28;20247;-81
2022/07/01 16:13:21;;;;;;;1.08;1.08;;;22.00;99.90;;;;;;5075744;28;20168;-81
2022/07/01 16:15:51;;;;;;;1.83;0.95;;;21.50;99.90;;;;;;5075749;28;20305;-80
2022/07/01 16:18:18;;;;;;;0.85;0.80;;;21.10;99.90;;;;;;5076870;28;20172;-82
2022/07/01 16:20:48;;;;;;;0.93;0.88;;;21.10;99.90;;;;;;5075542;28;20179;-83
2022/07/01 16:23:26;;;;;;;0.98;0.88;;;21.60;99.90;;;;;;5076811;28;20164;-82
2022/07/01 16:25:53;;;;;;;0.98;0.80;;;22.10;99.90;;;;;;5075390;28;20210;-83
2022/07/01 16:28:19;;;;;;;0.90;0.90;;;22.30;99.90;;;;;;5076703;28;20661;-82
2022/07/01 16:30:45;;;;;;;3.50;1.27;;;22.40;99.90;;;;;;5076619;28;20648;-82
2022/07/01 16:33:11;;;;;;;1.20;1.10;;;22.60;99.90;;;;;;5075215;28;20176;-82
2022/07/01 16:35:54;;;;;;;6.53;2.78;;;22.50;99.90;;;;;;5076417;28;20175;-82
2022/07/01 16:38:31;;;;;;;1.55;1.20;;;22.10;99.90;;;;;;5075188;28;20168;-83
2022/07/01 16:41:02;;;;;;;1.67;1.17;;;22.00;99.90;;;;;;5076463;28;20163;-83
2022/07/01 16:43:35;;;;;;;1.08;1.00;;;22.00;99.90;;;;;;5075138;28;20266;-83
2022/07/01 16:46:04;;;;;;;1.65;0.90;;;22.70;99.90;;;;;;5076121;28;20245;-84
2022/07/01 16:48:31;;;;;;;2.70;0.98;;;23.70;99.90;;;;;;5076276;28;20170;-83
2022/07/01 16:50:58;;;;;;;2.22;0.90;;;24.10;99.90;;;;;;5076295;28;20218;-84
2022/07/01 16:53:38;;;;;;;1.85;0.90;;;24.50;99.90;;;;;;5074894;28;20199;-83
2022/07/01 16:56:06;;;;;;;1.05;0.68;;;24.70;99.90;;;;;;5075070;28;20175;-84
2022/07/01 16:58:32;;;;;;;1.02;1.02;;;24.60;99.90;;;;;;5075934;28;20511;-84
2022/07/01 17:01:00;;;;;;;0.90;0.82;;;24.40;99.90;;;;;;5076019;28;20168;-84
2022/07/01 17:03:26;;;;;;;0.63;0.63;;;24.00;99.90;;;;;;5076023;28;20198;-83
2022/07/01 17:05:54;;;;;;;1.88;0.80;;;24.70;99.90;;;;;;5074682;28;20231;-84
2022/07/01 17:08:20;;;;;;;0.65;0.65;;;25.00;99.90;;;;;;5075963;28;20164;-84
2022/07/01 17:10:46;;;;;;;1.50;0.77;;;24.60;99.90;;;;;;5075923;28;20277;-83
2022/07/01 17:13:14;;;;;;;2.05;0.80;;;23.80;99.90;;;;;;5075955;28;20534;-81
2022/07/01 17:15:39;;;;;;;1.33;0.90;;;23.10;99.90;;;;;;5074591;28;20255;-84
2022/07/01 17:18:05;;;;;;;1.05;0.85;;;22.80;99.90;;;;;;5075349;28;20594;-83
2022/07/01 17:20:33;;;;;;;0.50;0.50;;;23.10;99.90;;;;;;5075741;28;20175;-84
2022/07/01 17:23:24;;;;;;;1.00;0.90;;;23.90;99.90;;;;;;5075641;28;20222;-82
2022/07/01 17:25:56;;;;;;;2.72;1.08;;;24.60;99.90;;;;;;5075435;28;20188;-83
2022/07/01 17:28:27;;;;;;;0.90;0.90;;;25.40;99.90;;;;;;5074204;28;20540;-82
2022/07/01 17:31:03;;;;;;;1.80;1.23;;;25.30;99.90;;;;;;5074192;28;20221;-84
2022/07/01 17:33:30;;;;;;;0.70;0.70;;;25.10;99.90;;;;;;5075380;28;20232;-84
2022/07/01 17:35:59;;;;;;;1.00;0.88;;;25.20;99.90;;;;;;5075311;28;20650;-83
2022/07/01 17:38:30;;;;;;;0.63;0.60;;;24.60;99.90;;;;;;5075302;28;20174;-82
2022/07/01 17:41:00;;;;;;;2.15;0.98;;;23.80;99.90;;;;;;5075284;28;20195;-82
2022/07/01 17:43:26;;;;;;;0.63;0.63;;;23.60;99.90;;;;;;5073892;28;20172;-83
2022/07/01 17:45:52;;;;;;;2.38;1.10;;;23.60;99.90;;;;;;5073623;28;20219;-83
2022/07/01 17:48:18;;;;;;;3.40;0.88;;;23.10;99.90;;;;;;5075022;28;20182;-84
2022/07/01 17:50:45;;;;;;;0.98;0.70;;;22.50;99.90;;;;;;5074987;28;20180;-84
2022/07/01 17:53:11;;;;;;;0.90;0.90;;;22.10;99.90;;;;;;5073636;28;20163;-83
2022/07/01 17:55:40;;;;;;;0.93;0.93;;;21.70;99.90;;;;;;5075039;28;20171;-83
2022/07/01 17:58:06;;;;;;;3.35;1.30;;;21.20;99.90;;;;;;5074787;28;20198;-82
2022/07/01 18:00:34;;;;;;;1.52;1.23;;;20.90;99.90;;;;;;5074828;28;20172;-83
2022/07/01 18:03:01;;;;;;;1.45;1.15;;;20.60;99.90;;;;;;5073513;28;20629;-82
2022/07/01 18:05:29;;;;;;;1.17;1.08;;;20.30;99.90;;;;;;5073399;28;20200;-82
2022/07/01 18:07:59;;;;;;;1.30;1.20;;;20.40;99.90;;;;;;5074722;28;20160;-83
2022/07/01 18:10:38;;;;;;;0.90;0.90;;;21.00;99.90;;;;;;5074594;28;20168;-83
2022/07/01 18:13:06;;;;;;;0.80;0.80;;;22.00;99.90;;;;;;5074704;28;20585;-84
2022/07/01 18:15:38;;;;;;;1.23;0.80;;;22.70;99.90;;;;;;5074490;28;20174;-83
2022/07/01 18:18:06;;;;;;;1.08;0.80;;;22.90;99.90;;;;;;5074582;28;20164;-81
2022/07/01 18:20:46;;;;;;;1.02;1.00;;;23.20;99.90;;;;;;5073123;28;20175;-84
2022/07/01 18:23:34;;;;;;;1.48;1.30;;;23.60;99.90;;;;;;5074836;28;20167;-83
2022/07/01 18:26:02;;;;;;;2.20;1.00;;;23.90;99.90;;;;;;5074292;28;20199;-83
2022/07/01 18:28:38;;;;;;;1.67;0.80;;;24.10;99.90;;;;;;5073620;28;20164;-83
2022/07/01 18:31:10;;;;;;;0.80;0.80;;;24.20;99.90;;;;;;5072916;28;20178;-83
2022/07/01 18:33:41;;;;;;;3.95;0.85;;;24.30;99.90;;;;;;5074236;28;20206;-83
2022/07/01 18:36:09;;;;;;;1.75;0.80;;;24.20;99.90;;;;;;5072923;28;20203;-83
2022/07/01 18:38:36;;;;;;;0.77;0.70;;;24.10;99.90;;;;;;5074099;28;20174;-83
2022/07/01 18:41:02;;;;;;;0.88;0.88;;;24.30;99.90;;;;;;5074070;28;20170;-82
2022/07/01 18:43:28;;;;;;;0.80;0.80;;;24.30;99.90;;;;;;5074041;28;20258;-83
2022/07/01 18:45:54;;;;;;;2.35;0.90;;;24.30;99.90;;;;;;5072413;28;20689;-79
2022/07/01 18:48:19;;;;;;;4.28;1.00;;;24.30;99.90;;;;;;5072648;28;20565;-79
2022/07/01 18:50:45;;;;;;;1.15;0.90;;;24.30;99.90;;;;;;5073798;28;20181;-81
2022/07/01 18:53:10;;;;;;;0.82;0.82;;;24.30;99.90;;;;;;5073929;28;20266;-80
2022/07/01 18:55:36;;;;;;;0.80;0.80;;;24.20;99.90;;;;;;5073806;28;20241;-80
2022/07/01 18:58:03;;;;;;;1.10;1.00;;;24.00;99.90;;;;;;5073689;28;20563;-80
2022/07/01 19:00:30;;;;;;;1.52;1.20;;;24.10;99.90;;;;;;5073770;28;20168;-79
2022/07/01 19:02:57;;;;;;;1.27;0.85;;;23.90;99.90;;;;;;5073738;28;20166;-79
2022/07/01 19:05:23;;;;;;;3.33;0.88;;;23.80;99.90;;;;;;5072245;28;20200;-79
2022/07/01 19:07:50;;;;;;;1.88;1.33;;;23.70;99.90;;;;;;5073693;28;20663;-79
2022/07/01 19:10:17;;;;;;;1.55;0.93;;;23.50;99.90;;;;;;5073604;28;20191;-79
2022/07/01 19:12:43;;;;;;;1.13;1.13;;;23.40;99.90;;;;;;5072238;28;20163;-79
2022/07/01 19:15:09;;;;;;;1.55;1.45;;;23.00;99.90;;;;;;5073626;28;20168;-78
2022/07/01 19:17:35;;;;;;;4.05;1.10;;;22.80;99.90;;;;;;5073453;28;20172;-78
2022/07/01 19:20:02;;;;;;;0.88;0.88;;;22.40;99.90;;;;;;5073845;28;20651;-78
2022/07/01 19:22:29;;;;;;;2.45;0.90;;;22.00;99.90;;;;;;5073413;28;20587;-79
2022/07/01 19:24:54;;;;;;;1.35;0.90;;;21.70;99.90;;;;;;5073259;28;20256;-79
